sensor_id;sensor_type;location;lat;lon;timestamp;pressure;altitude;pressure_sealevel;temperature;humidity
27429;BME280;14881;48.092;11.574;2024-03-29T00:00:56;94242.84;;;2.15;100.00
27429;BME280;14881;48.092;11.574;2024-03-29T00:03:23;94233.72;;;2.21;100.00
27429;BME280;14881;48.092;11.574;2024-03-29T00:05:49;94244.16;;;2.27;100.00
27429;BME280;14881;48.092;11.574;2024-03-29T00:08:15;94232.38;;;2.33;100.00
27429;BME280;14881;48.092;11.574;2024-03-29T00:10:41;94227.03;;;2.33;100.00
27429;BME280;14881;48.092;11.574;2024-03-29T00:13:10;94227.28;;;2.32;100.00
27429;BME280;14881;48.092;11.574;2024-03-29T00:15:36;94220.59;;;2.19;100.00
27429;BME280;14881;48.092;11.574;2024-03-29T00:18:02;94222.75;;;2.17;100.00
27429;BME280;14881;48.092;11.574;2024-03-29T00:20:29;94219.78;;;2.14;100.00
27429;BME280;14881;48.092;11.574;2024-03-29T00:22:55;94216.59;;;2.06;100.00
27429;BME280;14881;48.092;11.574;2024-03-29T00:25:21;94210.44;;;2.06;100.00
27429;BME280;14881;48.092;11.574;2024-03-29T00:27:47;94207.22;;;2.04;100.00
27429;BME280;14881;48.092;11.574;2024-03-29T00:30:13;94197.59;;;2.03;100.00
27429;BME280;14881;48.092;11.574;2024-03-29T00:32:39;94191.69;;;2.06;100.00
27429;BME280;14881;48.092;11.574;2024-03-29T00:35:05;94181.50;;;2.03;100.00
27429;BME280;14881;48.092;11.574;2024-03-29T00:37:33;94180.19;;;2.00;100.00
27429;BME280;14881;48.092;11.574;2024-03-29T00:39:59;94168.94;;;1.98;100.00
27429;BME280;14881;48.092;11.574;2024-03-29T00:42:24;94168.38;;;1.96;100.00
27429;BME280;14881;48.092;11.574;2024-03-29T00:44:50;94173.47;;;2.03;100.00
27429;BME280;14881;48.092;11.574;2024-03-29T00:47:16;94170.00;;;2.07;100.00
27429;BME280;14881;48.092;11.574;2024-03-29T00:49:42;94164.66;;;2.07;100.00
27429;BME280;14881;48.092;11.574;2024-03-29T00:52:08;94165.41;;;2.08;100.00
27429;BME280;14881;48.092;11.574;2024-03-29T00:54:35;94169.72;;;2.09;100.00
27429;BME280;14881;48.092;11.574;2024-03-29T00:57:01;94172.13;;;2.16;100.00
27429;BME280;14881;48.092;11.574;2024-03-29T00:59:27;94167.84;;;2.20;100.00
27429;BME280;14881;48.092;11.574;2024-03-29T01:01:53;94159.00;;;2.19;100.00
27429;BME280;14881;48.092;11.574;2024-03-29T01:04:19;94160.06;;;2.23;100.00
27429;BME280;14881;48.092;11.574;2024-03-29T01:06:45;94156.03;;;2.26;100.00
27429;BME280;14881;48.092;11.574;2024-03-29T01:09:11;94147.19;;;2.30;100.00
27429;BME280;14881;48.092;11.574;2024-03-29T01:11:38;94141.00;;;2.30;100.00
27429;BME280;14881;48.092;11.574;2024-03-29T01:14:04;94135.69;;;2.25;100.00
27429;BME280;14881;48.092;11.574;2024-03-29T01:16:30;94131.41;;;2.19;100.00
27429;BME280;14881;48.092;11.574;2024-03-29T01:18:57;94126.06;;;2.14;100.00
27429;BME280;14881;48.092;11.574;2024-03-29T01:21:23;94129.00;;;2.12;100.00
27429;BME280;14881;48.092;11.574;2024-03-29T01:23:49;94122.59;;;2.03;100.00
27429;BME280;14881;48.092;11.574;2024-03-29T01:26:14;94122.59;;;1.98;100.00
27429;BME280;14881;48.092;11.574;2024-03-29T01:28:42;94117.00;;;1.89;100.00
27429;BME280;14881;48.092;11.574;2024-03-29T01:31:08;94103.09;;;1.77;100.00
27429;BME280;14881;48.092;11.574;2024-03-29T01:33:33;94098.03;;;1.70;100.00
27429;BME280;14881;48.092;11.574;2024-03-29T01:35:59;94093.72;;;1.69;100.00
27429;BME280;14881;48.092;11.574;2024-03-29T01:38:25;94073.66;;;1.67;100.00
27429;BME280;14881;48.092;11.574;2024-03-29T01:40:51;94065.63;;;1.67;100.00
27429;BME280;14881;48.092;11.574;2024-03-29T01:43:17;94060.81;;;1.69;100.00
27429;BME280;14881;48.092;11.574;2024-03-29T01:45:48;94050.91;;;1.69;100.00
27429;BME280;14881;48.092;11.574;2024-03-29T01:48:15;94056.00;;;1.71;100.00
27429;BME280;14881;48.092;11.574;2024-03-29T01:50:44;94062.44;;;1.70;100.00
27429;BME280;14881;48.092;11.574;2024-03-29T01:53:11;94073.13;;;1.70;100.00
27429;BME280;14881;48.092;11.574;2024-03-29T01:55:39;94074.19;;;1.69;100.00
27429;BME280;14881;48.092;11.574;2024-03-29T01:58:07;94071.78;;;1.67;100.00
27429;BME280;14881;48.092;11.574;2024-03-29T02:00:36;94075.53;;;1.66;100.00
27429;BME280;14881;48.092;11.574;2024-03-29T02:03:06;94066.97;;;1.64;100.00
27429;BME280;14881;48.092;11.574;2024-03-29T02:05:35;94076.06;;;1.63;100.00
27429;BME280;14881;48.092;11.574;2024-03-29T02:08:04;94069.38;;;1.61;100.00
27429;BME280;14881;48.092;11.574;2024-03-29T02:10:30;94065.34;;;1.58;100.00
27429;BME280;14881;48.092;11.574;2024-03-29T02:12:57;94067.00;;;1.54;100.00
27429;BME280;14881;48.092;11.574;2024-03-29T02:15:24;94064.84;;;1.51;100.00
27429;BME280;14881;48.092;11.574;2024-03-29T02:17:52;94065.91;;;1.45;100.00
27429;BME280;14881;48.092;11.574;2024-03-29T02:20:20;94061.91;;;1.43;100.00
27429;BME280;14881;48.092;11.574;2024-03-29T02:22:53;94064.84;;;1.41;100.00
27429;BME280;14881;48.092;11.574;2024-03-29T02:25:22;94064.84;;;1.41;100.00
27429;BME280;14881;48.092;11.574;2024-03-29T02:27:49;94074.72;;;1.40;100.00
27429;BME280;14881;48.092;11.574;2024-03-29T02:30:17;94068.59;;;1.40;100.00
27429;BME280;14881;48.092;11.574;2024-03-29T02:32:44;94064.59;;;1.37;100.00
27429;BME280;14881;48.092;11.574;2024-03-29T02:35:11;94073.41;;;1.33;100.00
27429;BME280;14881;48.092;11.574;2024-03-29T02:37:38;94064.06;;;1.30;100.00
27429;BME280;14881;48.092;11.574;2024-03-29T02:40:06;94061.38;;;1.25;100.00
27429;BME280;14881;48.092;11.574;2024-03-29T02:42:35;94064.03;;;1.25;100.00
27429;BME280;14881;48.092;11.574;2024-03-29T02:45:02;94052.53;;;1.30;100.00
27429;BME280;14881;48.092;11.574;2024-03-29T02:47:29;94046.66;;;1.38;100.00
27429;BME280;14881;48.092;11.574;2024-03-29T02:49:56;94048.53;;;1.43;100.00
27429;BME280;14881;48.092;11.574;2024-03-29T02:52:25;94068.88;;;1.54;100.00
27429;BME280;14881;48.092;11.574;2024-03-29T02:54:52;94064.03;;;1.66;100.00
27429;BME280;14881;48.092;11.574;2024-03-29T02:57:18;94056.81;;;1.66;100.00
27429;BME280;14881;48.092;11.574;2024-03-29T02:59:46;94045.28;;;1.66;100.00
27429;BME280;14881;48.092;11.574;2024-03-29T03:02:12;94047.16;;;1.65;100.00
27429;BME280;14881;48.092;11.574;2024-03-29T03:04:38;94050.66;;;1.71;100.00
27429;BME280;14881;48.092;11.574;2024-03-29T03:07:04;94044.72;;;1.79;100.00
27429;BME280;14881;48.092;11.574;2024-03-29T03:09:45;94040.13;;;1.95;100.00
27429;BME280;14881;48.092;11.574;2024-03-29T03:12:35;94038.78;;;2.07;100.00
27429;BME280;14881;48.092;11.574;2024-03-29T03:15:04;94040.06;;;2.15;100.00
27429;BME280;14881;48.092;11.574;2024-03-29T03:17:31;94033.38;;;2.18;100.00
27429;BME280;14881;48.092;11.574;2024-03-29T03:19:56;94037.66;;;2.19;100.00
27429;BME280;14881;48.092;11.574;2024-03-29T03:22:24;94022.94;;;2.16;100.00
27429;BME280;14881;48.092;11.574;2024-03-29T03:24:50;94011.16;;;2.12;100.00
27429;BME280;14881;48.092;11.574;2024-03-29T03:27:17;94011.19;;;2.07;100.00
27429;BME280;14881;48.092;11.574;2024-03-29T03:29:43;94006.66;;;2.02;100.00
27429;BME280;14881;48.092;11.574;2024-03-29T03:32:11;94014.69;;;2.02;100.00
27429;BME280;14881;48.092;11.574;2024-03-29T03:34:37;94016.78;;;2.10;100.00
27429;BME280;14881;48.092;11.574;2024-03-29T03:37:04;94022.38;;;2.19;100.00
27429;BME280;14881;48.092;11.574;2024-03-29T03:39:30;94015.91;;;2.30;100.00
27429;BME280;14881;48.092;11.574;2024-03-29T03:41:56;94016.69;;;2.36;100.00
27429;BME280;14881;48.092;11.574;2024-03-29T03:44:22;94006.53;;;2.33;100.00
27429;BME280;14881;48.092;11.574;2024-03-29T03:46:50;94000.63;;;2.36;100.00
27429;BME280;14881;48.092;11.574;2024-03-29T03:49:17;93985.63;;;2.30;100.00
27429;BME280;14881;48.092;11.574;2024-03-29T03:51:44;94000.91;;;2.29;100.00
27429;BME280;14881;48.092;11.574;2024-03-29T03:54:10;94003.31;;;2.26;100.00
27429;BME280;14881;48.092;11.574;2024-03-29T03:56:37;94002.25;;;2.27;100.00
27429;BME280;14881;48.092;11.574;2024-03-29T03:59:02;94000.41;;;2.22;100.00
27429;BME280;14881;48.092;11.574;2024-03-29T04:01:29;93997.47;;;2.19;100.00
27429;BME280;14881;48.092;11.574;2024-03-29T04:03:55;94000.44;;;2.17;100.00
27429;BME280;14881;48.092;11.574;2024-03-29T04:06:23;93998.28;;;2.14;100.00
27429;BME280;14881;48.092;11.574;2024-03-29T04:08:49;93994.28;;;2.12;100.00
27429;BME280;14881;48.092;11.574;2024-03-29T04:11:16;94008.22;;;2.14;100.00
27429;BME280;14881;48.092;11.574;2024-03-29T04:13:42;94019.72;;;2.14;100.00
27429;BME280;14881;48.092;11.574;2024-03-29T04:16:09;94017.03;;;2.19;100.00
27429;BME280;14881;48.092;11.574;2024-03-29T04:18:35;94009.00;;;2.19;100.00
27429;BME280;14881;48.092;11.574;2024-03-29T04:21:03;93996.94;;;2.17;100.00
27429;BME280;14881;48.092;11.574;2024-03-29T04:23:31;94001.78;;;2.15;100.00
27429;BME280;14881;48.092;11.574;2024-03-29T04:25:59;93990.53;;;2.13;100.00
27429;BME280;14881;48.092;11.574;2024-03-29T04:28:26;93988.91;;;2.17;100.00
27429;BME280;14881;48.092;11.574;2024-03-29T04:30:53;93982.75;;;2.16;100.00
27429;BME280;14881;48.092;11.574;2024-03-29T04:33:19;93970.97;;;2.17;100.00
27429;BME280;14881;48.092;11.574;2024-03-29T04:35:54;93961.06;;;2.18;100.00
27429;BME280;14881;48.092;11.574;2024-03-29T04:38:20;93956.50;;;2.18;100.00
27429;BME280;14881;48.092;11.574;2024-03-29T04:40:49;93945.25;;;2.16;100.00
27429;BME280;14881;48.092;11.574;2024-03-29T04:43:15;93949.53;;;2.17;100.00
27429;BME280;14881;48.092;11.574;2024-03-29T04:45:43;93950.31;;;2.23;100.00
27429;BME280;14881;48.092;11.574;2024-03-29T04:48:10;93956.47;;;2.23;100.00
27429;BME280;14881;48.092;11.574;2024-03-29T04:50:37;93956.97;;;2.30;100.00
27429;BME280;14881;48.092;11.574;2024-03-29T04:53:04;93975.44;;;2.32;100.00
27429;BME280;14881;48.092;11.574;2024-03-29T04:55:34;93975.16;;;2.33;100.00
27429;BME280;14881;48.092;11.574;2024-03-29T04:58:02;93965.78;;;2.36;100.00
27429;BME280;14881;48.092;11.574;2024-03-29T05:00:29;93974.34;;;2.38;100.00
27429;BME280;14881;48.092;11.574;2024-03-29T05:02:56;93986.63;;;2.44;100.00
27429;BME280;14881;48.092;11.574;2024-03-29T05:05:23;93986.59;;;2.54;100.00
27429;BME280;14881;48.092;11.574;2024-03-29T05:07:50;93985.22;;;2.57;100.00
27429;BME280;14881;48.092;11.574;2024-03-29T05:10:16;93987.13;;;2.56;100.00
27429;BME280;14881;48.092;11.574;2024-03-29T05:12:44;93984.16;;;2.58;100.00
27429;BME280;14881;48.092;11.574;2024-03-29T05:15:12;93989.25;;;2.59;100.00
27429;BME280;14881;48.092;11.574;2024-03-29T05:17:39;93988.44;;;2.59;100.00
27429;BME280;14881;48.092;11.574;2024-03-29T05:20:07;93991.91;;;2.59;100.00
27429;BME280;14881;48.092;11.574;2024-03-29T05:22:35;93987.59;;;2.63;100.00
27429;BME280;14881;48.092;11.574;2024-03-29T05:25:02;93988.91;;;2.66;100.00
27429;BME280;14881;48.092;11.574;2024-03-29T05:27:29;93977.13;;;2.67;100.00
27429;BME280;14881;48.092;11.574;2024-03-29T05:29:56;93971.75;;;2.67;100.00
27429;BME280;14881;48.092;11.574;2024-03-29T05:32:27;93958.59;;;2.70;100.00
27429;BME280;14881;48.092;11.574;2024-03-29T05:34:57;93950.81;;;2.74;100.00
27429;BME280;14881;48.092;11.574;2024-03-29T05:37:26;93940.63;;;2.76;100.00
27429;BME280;14881;48.092;11.574;2024-03-29T05:39:53;93926.34;;;2.80;100.00
27429;BME280;14881;48.092;11.574;2024-03-29T05:42:25;93910.19;;;2.91;100.00
27429;BME280;14881;48.092;11.574;2024-03-29T05:44:52;93916.25;;;3.01;100.00
27429;BME280;14881;48.092;11.574;2024-03-29T05:47:19;93916.47;;;3.10;100.00
27429;BME280;14881;48.092;11.574;2024-03-29T05:49:47;93919.84;;;3.21;100.00
27429;BME280;14881;48.092;11.574;2024-03-29T05:52:15;93913.00;;;3.33;100.00
27429;BME280;14881;48.092;11.574;2024-03-29T05:54:42;93886.59;;;3.45;100.00
27429;BME280;14881;48.092;11.574;2024-03-29T05:57:09;93890.22;;;3.55;100.00
27429;BME280;14881;48.092;11.574;2024-03-29T05:59:36;93907.09;;;3.60;100.00
27429;BME280;14881;48.092;11.574;2024-03-29T06:02:03;93899.25;;;3.64;100.00
27429;BME280;14881;48.092;11.574;2024-03-29T06:04:30;93913.19;;;3.66;100.00
27429;BME280;14881;48.092;11.574;2024-03-29T06:06:59;93909.94;;;3.69;100.00
27429;BME280;14881;48.092;11.574;2024-03-29T06:09:26;93923.38;;;3.69;100.00
27429;BME280;14881;48.092;11.574;2024-03-29T06:11:54;93925.25;;;3.68;100.00
27429;BME280;14881;48.092;11.574;2024-03-29T06:14:21;93927.38;;;3.71;100.00
27429;BME280;14881;48.092;11.574;2024-03-29T06:17:05;93947.91;;;3.81;100.00
27429;BME280;14881;48.092;11.574;2024-03-29T06:19:51;93933.59;;;3.91;100.00
27429;BME280;14881;48.092;11.574;2024-03-29T06:22:23;93954.91;;;4.06;100.00
27429;BME280;14881;48.092;11.574;2024-03-29T06:24:50;93945.56;;;4.22;100.00
27429;BME280;14881;48.092;11.574;2024-03-29T06:27:18;93966.06;;;4.37;100.00
27429;BME280;14881;48.092;11.574;2024-03-29T06:29:50;93968.78;;;4.55;100.00
27429;BME280;14881;48.092;11.574;2024-03-29T06:32:17;93954.00;;;4.72;100.00
27429;BME280;14881;48.092;11.574;2024-03-29T06:34:44;93951.31;;;4.90;100.00
27429;BME280;14881;48.092;11.574;2024-03-29T06:37:13;93958.06;;;5.07;100.00
27429;BME280;14881;48.092;11.574;2024-03-29T06:39:41;93940.97;;;5.16;100.00
27429;BME280;14881;48.092;11.574;2024-03-29T06:42:09;93914.88;;;5.31;100.00
27429;BME280;14881;48.092;11.574;2024-03-29T06:44:36;93932.16;;;5.43;100.00
27429;BME280;14881;48.092;11.574;2024-03-29T06:47:03;93925.00;;;5.52;100.00
27429;BME280;14881;48.092;11.574;2024-03-29T06:49:30;93911.13;;;5.59;100.00
27429;BME280;14881;48.092;11.574;2024-03-29T06:51:58;93927.13;;;5.69;100.00
27429;BME280;14881;48.092;11.574;2024-03-29T06:54:26;93930.63;;;5.83;100.00
27429;BME280;14881;48.092;11.574;2024-03-29T06:56:55;93915.88;;;5.94;100.00
27429;BME280;14881;48.092;11.574;2024-03-29T06:59:22;93926.63;;;6.08;100.00
27429;BME280;14881;48.092;11.574;2024-03-29T07:01:50;93923.44;;;6.20;100.00
27429;BME280;14881;48.092;11.574;2024-03-29T07:04:19;93925.31;;;6.33;100.00
27429;BME280;14881;48.092;11.574;2024-03-29T07:06:46;93919.59;;;6.48;100.00
27429;BME280;14881;48.092;11.574;2024-03-29T07:09:17;93916.06;;;6.61;100.00
27429;BME280;14881;48.092;11.574;2024-03-29T07:11:45;93901.75;;;6.75;100.00
27429;BME280;14881;48.092;11.574;2024-03-29T07:14:13;93905.50;;;6.87;100.00
27429;BME280;14881;48.092;11.574;2024-03-29T07:16:40;93903.25;;;7.03;100.00
27429;BME280;14881;48.092;11.574;2024-03-29T07:19:07;93898.75;;;7.21;100.00
27429;BME280;14881;48.092;11.574;2024-03-29T07:21:34;93894.25;;;7.39;100.00
27429;BME280;14881;48.092;11.574;2024-03-29T07:24:01;93888.47;;;7.54;100.00
27429;BME280;14881;48.092;11.574;2024-03-29T07:26:27;93879.94;;;7.69;100.00
27429;BME280;14881;48.092;11.574;2024-03-29T07:28:54;93892.59;;;7.91;100.00
27429;BME280;14881;48.092;11.574;2024-03-29T07:31:22;93889.59;;;8.01;100.00
27429;BME280;14881;48.092;11.574;2024-03-29T07:33:49;93895.06;;;8.18;100.00
27429;BME280;14881;48.092;11.574;2024-03-29T07:36:16;93895.66;;;8.46;100.00
27429;BME280;14881;48.092;11.574;2024-03-29T07:38:43;93889.00;;;8.78;100.00
27429;BME280;14881;48.092;11.574;2024-03-29T07:41:10;93900.44;;;9.01;100.00
27429;BME280;14881;48.092;11.574;2024-03-29T07:43:38;93901.56;;;9.26;100.00
27429;BME280;14881;48.092;11.574;2024-03-29T07:46:05;93906.94;;;9.43;100.00
27429;BME280;14881;48.092;11.574;2024-03-29T07:48:35;93912.19;;;9.65;100.00
27429;BME280;14881;48.092;11.574;2024-03-29T07:51:02;93911.50;;;9.86;100.00
27429;BME280;14881;48.092;11.574;2024-03-29T07:53:29;93916.19;;;10.06;100.00
27429;BME280;14881;48.092;11.574;2024-03-29T07:55:56;93918.72;;;10.20;100.00
27429;BME280;14881;48.092;11.574;2024-03-29T07:58:23;93927.75;;;10.32;100.00
27429;BME280;14881;48.092;11.574;2024-03-29T08:00:52;93925.44;;;10.52;100.00
27429;BME280;14881;48.092;11.574;2024-03-29T08:03:19;93927.38;;;10.72;100.00
27429;BME280;14881;48.092;11.574;2024-03-29T08:05:58;93913.47;;;10.94;100.00
27429;BME280;14881;48.092;11.574;2024-03-29T08:08:25;93909.97;;;11.14;100.00
27429;BME280;14881;48.092;11.574;2024-03-29T08:10:53;93914.88;;;11.42;100.00
27429;BME280;14881;48.092;11.574;2024-03-29T08:13:19;93918.78;;;11.65;100.00
27429;BME280;14881;48.092;11.574;2024-03-29T08:15:48;93909.72;;;11.94;100.00
27429;BME280;14881;48.092;11.574;2024-03-29T08:18:14;93906.34;;;12.09;100.00
27429;BME280;14881;48.092;11.574;2024-03-29T08:20:42;93902.06;;;12.45;100.00
27429;BME280;14881;48.092;11.574;2024-03-29T08:23:10;93896.00;;;12.76;100.00
27429;BME280;14881;48.092;11.574;2024-03-29T08:25:37;93899.81;;;12.99;100.00
27429;BME280;14881;48.092;11.574;2024-03-29T08:28:04;93886.72;;;13.29;100.00
27429;BME280;14881;48.092;11.574;2024-03-29T08:30:31;93879.56;;;13.52;100.00
27429;BME280;14881;48.092;11.574;2024-03-29T08:33:01;93871.88;;;13.86;100.00
27429;BME280;14881;48.092;11.574;2024-03-29T08:35:29;93864.44;;;14.14;100.00
27429;BME280;14881;48.092;11.574;2024-03-29T08:37:56;93864.69;;;14.41;100.00
27429;BME280;14881;48.092;11.574;2024-03-29T08:40:25;93878.16;;;14.65;100.00
27429;BME280;14881;48.092;11.574;2024-03-29T08:42:54;93873.25;;;14.90;100.00
27429;BME280;14881;48.092;11.574;2024-03-29T08:45:21;93867.38;;;15.07;100.00
27429;BME280;14881;48.092;11.574;2024-03-29T08:47:48;93867.56;;;15.33;100.00
27429;BME280;14881;48.092;11.574;2024-03-29T08:50:15;93870.03;;;15.58;100.00
27429;BME280;14881;48.092;11.574;2024-03-29T08:52:42;93868.25;;;15.88;98.50
27429;BME280;14881;48.092;11.574;2024-03-29T08:55:10;93865.84;;;16.06;98.72
27429;BME280;14881;48.092;11.574;2024-03-29T08:57:38;93865.31;;;16.20;87.29
27429;BME280;14881;48.092;11.574;2024-03-29T09:00:08;93861.94;;;16.30;85.54
27429;BME280;14881;48.092;11.574;2024-03-29T09:02:35;93859.13;;;16.49;90.40
27429;BME280;14881;48.092;11.574;2024-03-29T09:05:02;93855.72;;;16.56;82.14
27429;BME280;14881;48.092;11.574;2024-03-29T09:07:28;93853.88;;;16.63;84.27
27429;BME280;14881;48.092;11.574;2024-03-29T09:09:55;93853.28;;;16.74;81.23
27429;BME280;14881;48.092;11.574;2024-03-29T09:12:22;93862.13;;;16.90;79.05
27429;BME280;14881;48.092;11.574;2024-03-29T09:14:50;93860.38;;;17.04;79.75
27429;BME280;14881;48.092;11.574;2024-03-29T09:17:18;93858.25;;;17.21;81.18
27429;BME280;14881;48.092;11.574;2024-03-29T09:19:49;93844.88;;;17.49;90.81
27429;BME280;14881;48.092;11.574;2024-03-29T09:22:16;93853.31;;;17.63;82.07
27429;BME280;14881;48.092;11.574;2024-03-29T09:24:43;93847.91;;;17.70;76.27
27429;BME280;14881;48.092;11.574;2024-03-29T09:27:09;93848.06;;;17.85;73.63
27429;BME280;14881;48.092;11.574;2024-03-29T09:29:36;93841.09;;;17.94;72.70
27429;BME280;14881;48.092;11.574;2024-03-29T09:32:05;93847.19;;;18.14;69.60
27429;BME280;14881;48.092;11.574;2024-03-29T09:34:32;93850.16;;;18.35;71.60
27429;BME280;14881;48.092;11.574;2024-03-29T09:36:59;93845.97;;;18.52;70.71
27429;BME280;14881;48.092;11.574;2024-03-29T09:39:25;93844.00;;;18.53;66.68
27429;BME280;14881;48.092;11.574;2024-03-29T09:41:56;93846.13;;;18.73;68.14
27429;BME280;14881;48.092;11.574;2024-03-29T09:44:26;93842.22;;;18.74;67.26
27429;BME280;14881;48.092;11.574;2024-03-29T09:46:59;93854.50;;;18.84;67.46
27429;BME280;14881;48.092;11.574;2024-03-29T09:49:30;93849.75;;;18.81;68.26
27429;BME280;14881;48.092;11.574;2024-03-29T09:51:58;93848.66;;;18.96;72.86
27429;BME280;14881;48.092;11.574;2024-03-29T09:54:26;93845.94;;;19.00;73.55
27429;BME280;14881;48.092;11.574;2024-03-29T09:56:54;93852.13;;;18.83;70.67
27429;BME280;14881;48.092;11.574;2024-03-29T09:59:22;93857.59;;;18.79;69.58
27429;BME280;14881;48.092;11.574;2024-03-29T10:01:50;93851.28;;;18.78;74.53
27429;BME280;14881;48.092;11.574;2024-03-29T10:04:19;93841.81;;;18.72;70.18
27429;BME280;14881;48.092;11.574;2024-03-29T10:06:48;93844.91;;;18.64;71.71
27429;BME280;14881;48.092;11.574;2024-03-29T10:09:17;93852.25;;;18.53;68.94
27429;BME280;14881;48.092;11.574;2024-03-29T10:11:44;93842.38;;;18.48;67.34
27429;BME280;14881;48.092;11.574;2024-03-29T10:14:11;93845.50;;;18.47;66.36
27429;BME280;14881;48.092;11.574;2024-03-29T10:16:38;93847.06;;;18.44;66.46
27429;BME280;14881;48.092;11.574;2024-03-29T10:19:07;93849.88;;;18.55;70.00
27429;BME280;14881;48.092;11.574;2024-03-29T10:21:35;93843.81;;;18.79;79.05
27429;BME280;14881;48.092;11.574;2024-03-29T10:24:12;93838.72;;;18.81;68.34
27429;BME280;14881;48.092;11.574;2024-03-29T10:26:40;93837.31;;;19.01;66.49
27429;BME280;14881;48.092;11.574;2024-03-29T10:29:07;93834.19;;;19.10;69.06
27429;BME280;14881;48.092;11.574;2024-03-29T10:31:34;93827.06;;;19.02;65.24
27429;BME280;14881;48.092;11.574;2024-03-29T10:34:02;93828.66;;;19.03;66.12
27429;BME280;14881;48.092;11.574;2024-03-29T10:36:30;93830.97;;;18.97;64.57
27429;BME280;14881;48.092;11.574;2024-03-29T10:39:02;93837.25;;;18.94;65.75
27429;BME280;14881;48.092;11.574;2024-03-29T10:41:30;93823.56;;;19.08;67.66
27429;BME280;14881;48.092;11.574;2024-03-29T10:44:00;93824.84;;;19.29;64.91
27429;BME280;14881;48.092;11.574;2024-03-29T10:46:29;93814.38;;;19.56;64.66
27429;BME280;14881;48.092;11.574;2024-03-29T10:48:57;93801.50;;;20.02;61.33
27429;BME280;14881;48.092;11.574;2024-03-29T10:51:24;93799.16;;;20.08;60.65
27429;BME280;14881;48.092;11.574;2024-03-29T10:53:53;93804.31;;;20.34;66.06
27429;BME280;14881;48.092;11.574;2024-03-29T10:56:22;93805.06;;;20.31;59.04
27429;BME280;14881;48.092;11.574;2024-03-29T10:58:55;93808.28;;;20.40;60.28
27429;BME280;14881;48.092;11.574;2024-03-29T11:01:24;93807.09;;;20.38;57.23
27429;BME280;14881;48.092;11.574;2024-03-29T11:03:54;93801.50;;;20.13;57.14
27429;BME280;14881;48.092;11.574;2024-03-29T11:06:28;93803.06;;;19.93;58.37
27429;BME280;14881;48.092;11.574;2024-03-29T11:08:56;93795.56;;;19.93;58.06
27429;BME280;14881;48.092;11.574;2024-03-29T11:11:26;93799.94;;;20.15;58.39
27429;BME280;14881;48.092;11.574;2024-03-29T11:14:02;93792.47;;;20.34;62.27
27429;BME280;14881;48.092;11.574;2024-03-29T11:16:29;93790.16;;;20.39;58.91
27429;BME280;14881;48.092;11.574;2024-03-29T11:18:56;93789.31;;;20.03;54.48
27429;BME280;14881;48.092;11.574;2024-03-29T11:21:24;93790.09;;;20.07;56.84
27429;BME280;14881;48.092;11.574;2024-03-29T11:23:54;93792.06;;;20.32;57.50
27429;BME280;14881;48.092;11.574;2024-03-29T11:26:23;93792.50;;;20.37;55.81
27429;BME280;14881;48.092;11.574;2024-03-29T11:28:53;93784.22;;;20.66;55.83
27429;BME280;14881;48.092;11.574;2024-03-29T11:31:24;93783.03;;;20.74;55.96
27429;BME280;14881;48.092;11.574;2024-03-29T11:33:51;93788.16;;;20.68;55.85
27429;BME280;14881;48.092;11.574;2024-03-29T11:36:20;93786.59;;;20.57;54.97
27429;BME280;14881;48.092;11.574;2024-03-29T11:38:50;93793.69;;;20.58;54.89
27429;BME280;14881;48.092;11.574;2024-03-29T11:41:18;93787.38;;;20.64;55.11
27429;BME280;14881;48.092;11.574;2024-03-29T11:43:47;93791.31;;;20.77;56.83
27429;BME280;14881;48.092;11.574;2024-03-29T11:46:14;93788.09;;;20.97;56.65
27429;BME280;14881;48.092;11.574;2024-03-29T11:48:43;93784.09;;;21.19;58.28
27429;BME280;14881;48.092;11.574;2024-03-29T11:51:13;93780.19;;;21.09;55.42
27429;BME280;14881;48.092;11.574;2024-03-29T11:53:41;93786.13;;;21.11;55.22
27429;BME280;14881;48.092;11.574;2024-03-29T11:56:08;93774.25;;;21.14;57.36
27429;BME280;14881;48.092;11.574;2024-03-29T11:58:37;93776.22;;;21.14;55.35
27429;BME280;14881;48.092;11.574;2024-03-29T12:01:07;93779.00;;;21.25;55.41
27429;BME280;14881;48.092;11.574;2024-03-29T12:03:38;93776.25;;;21.03;55.19
27429;BME280;14881;48.092;11.574;2024-03-29T12:06:07;93782.53;;;21.14;54.29
27429;BME280;14881;48.092;11.574;2024-03-29T12:08:36;93772.63;;;21.38;54.88
27429;BME280;14881;48.092;11.574;2024-03-29T12:11:07;93768.50;;;21.75;52.10
27429;BME280;14881;48.092;11.574;2024-03-29T12:13:33;93757.94;;;22.25;55.09
27429;BME280;14881;48.092;11.574;2024-03-29T12:16:01;93750.72;;;22.35;49.06
27429;BME280;14881;48.092;11.574;2024-03-29T12:18:29;93756.88;;;22.56;51.46
27429;BME280;14881;48.092;11.574;2024-03-29T12:20:57;93747.22;;;22.79;53.79
27429;BME280;14881;48.092;11.574;2024-03-29T12:23:25;93748.41;;;22.78;47.25
27429;BME280;14881;48.092;11.574;2024-03-29T12:25:54;93743.59;;;22.85;46.25
27429;BME280;14881;48.092;11.574;2024-03-29T12:28:23;93742.88;;;22.78;47.11
27429;BME280;14881;48.092;11.574;2024-03-29T12:30:51;93728.94;;;23.22;48.70
27429;BME280;14881;48.092;11.574;2024-03-29T12:33:20;93722.59;;;23.56;45.19
27429;BME280;14881;48.092;11.574;2024-03-29T12:35:47;93726.97;;;23.84;45.01
27429;BME280;14881;48.092;11.574;2024-03-29T12:38:16;93731.25;;;23.62;44.13
27429;BME280;14881;48.092;11.574;2024-03-29T12:40:45;93734.13;;;23.51;47.24
27429;BME280;14881;48.092;11.574;2024-03-29T12:43:14;93729.22;;;23.92;44.29
27429;BME280;14881;48.092;11.574;2024-03-29T12:45:43;93707.09;;;24.16;43.29
27429;BME280;14881;48.092;11.574;2024-03-29T12:48:10;93710.94;;;24.49;43.92
27429;BME280;14881;48.092;11.574;2024-03-29T12:50:40;93703.75;;;24.51;42.42
27429;BME280;14881;48.092;11.574;2024-03-29T12:53:09;93701.03;;;24.48;43.47